Time;durP1;ratioP1;P1;durP2;ratioP2;P2;SDS_P1;SDS_P2;PMS_P1;PMS_P2;Temp;Humidity;BMP_temperature;BMP_pressure;BME280_temperature;BME280_humidity;BME280_pressure;Samples;Min_cycle;Max_cycle;Signal;HPM_P1;HPM_P2
2021/10/05 00:01:11;;;;;;;19.48;13.85;;;;;;;14.14;48.33;101213.66;1754493;80;21015;-63
2021/10/05 00:03:38;;;;;;;17.98;14.63;;;;;;;14.12;48.36;101208.97;1771169;79;21016;-63
2021/10/05 00:06:04;;;;;;;18.82;13.03;;;;;;;14.11;48.40;101212.11;1764760;80;21018;-64
2021/10/05 00:08:31;;;;;;;21.17;14.58;;;;;;;14.10;48.44;101218.94;1767483;80;21026;-63
2021/10/05 00:10:57;;;;;;;20.43;14.13;;;;;;;14.06;48.50;101214.43;1763631;79;21573;-63
2021/10/05 00:13:25;;;;;;;19.00;14.05;;;;;;;14.04;48.59;101215.55;1757491;80;21037;-62
2021/10/05 00:15:51;;;;;;;22.60;13.95;;;;;;;14.01;48.63;101209.20;1710856;82;21037;-63
2021/10/05 00:18:18;;;;;;;20.20;14.05;;;;;;;13.98;48.71;101210.84;1762248;80;21529;-63
2021/10/05 00:20:44;;;;;;;22.50;12.95;;;;;;;13.95;48.76;101211.48;1768094;80;21033;-63
2021/10/05 00:23:10;;;;;;;22.80;13.75;;;;;;;13.93;48.83;101211.31;1756735;80;21119;-62
2021/10/05 00:25:38;;;;;;;21.95;14.23;;;;;;;13.89;48.91;101213.45;1767555;80;20988;-62
2021/10/05 00:28:06;;;;;;;25.30;14.03;;;;;;;13.87;49.01;101210.56;1762299;80;21045;-63
2021/10/05 00:30:33;;;;;;;24.65;13.93;;;;;;;13.84;49.07;101210.89;1761872;80;21065;-63
2021/10/05 00:32:59;;;;;;;26.52;14.05;;;;;;;13.82;49.11;101215.55;1769261;80;21073;-62
2021/10/05 00:35:26;;;;;;;22.52;14.58;;;;;;;13.79;49.19;101211.36;1781434;80;21109;-64
2021/10/05 00:37:52;;;;;;;20.57;13.58;;;;;;;13.77;49.27;101210.65;1782041;80;21080;-62
2021/10/05 00:40:20;;;;;;;23.83;14.83;;;;;;;13.75;49.30;101216.17;1781516;80;21485;-62
2021/10/05 00:42:46;;;;;;;20.80;14.40;;;;;;;13.73;49.40;101213.28;1761881;80;21026;-63
2021/10/05 00:45:12;;;;;;;21.48;13.53;;;;;;;13.71;49.44;101215.27;1760981;80;20994;-63
2021/10/05 00:47:39;;;;;;;18.42;13.32;;;;;;;13.68;49.52;101212.42;1760934;80;21144;-62
2021/10/05 00:50:07;;;;;;;23.15;13.85;;;;;;;13.66;49.57;101217.58;1717952;82;21609;-63
2021/10/05 00:52:36;;;;;;;22.95;13.72;;;;;;;13.64;49.65;101216.89;1760830;80;21018;-61
2021/10/05 00:55:06;;;;;;;20.40;12.85;;;;;;;13.63;49.73;101219.20;1773856;80;21026;-62
2021/10/05 00:57:32;;;;;;;18.32;13.22;;;;;;;13.59;49.82;101215.16;1774103;80;21066;-63
2021/10/05 00:59:59;;;;;;;19.98;12.73;;;;;;;13.54;49.92;101213.80;1772989;80;21098;-62
2021/10/05 01:02:25;;;;;;;17.87;12.53;;;;;;;13.49;50.04;101212.56;1773777;80;21064;-62
2021/10/05 01:04:51;;;;;;;21.45;14.45;;;;;;;13.44;50.18;101218.34;1773598;80;21042;-62
2021/10/05 01:07:20;;;;;;;19.82;12.80;;;;;;;13.42;50.33;101217.66;1750967;80;21097;-62
2021/10/05 01:09:46;;;;;;;17.98;12.00;;;;;;;13.38;50.45;101218.95;1751861;80;21022;-62
2021/10/05 01:12:13;;;;;;;17.30;12.82;;;;;;;13.34;50.58;101229.08;1771401;80;21096;-63
2021/10/05 01:14:40;;;;;;;16.40;12.80;;;;;;;13.30;50.70;101225.03;1748754;80;21073;-62
2021/10/05 01:17:07;;;;;;;19.12;12.35;;;;;;;13.29;50.83;101227.81;1766692;80;21000;-61
2021/10/05 01:19:33;;;;;;;23.25;13.35;;;;;;;13.28;50.87;101228.82;1771667;80;21093;-63
2021/10/05 01:22:00;;;;;;;18.30;12.68;;;;;;;13.26;50.94;101224.13;1748910;80;21113;-62
2021/10/05 01:24:29;;;;;;;16.45;12.73;;;;;;;13.24;50.98;101228.77;1752850;80;21067;-64
2021/10/05 01:26:57;;;;;;;13.98;12.33;;;;;;;13.23;51.04;101230.61;1771391;80;21379;-62
2021/10/05 01:29:26;;;;;;;16.82;12.70;;;;;;;13.23;51.09;101237.28;1772734;80;21093;-63
2021/10/05 01:31:55;;;;;;;18.45;12.73;;;;;;;13.22;51.13;101234.76;1768118;79;21011;-62
2021/10/05 01:34:22;;;;;;;19.27;12.58;;;;;;;13.19;51.17;101242.55;1769438;80;21090;-63
2021/10/05 01:36:50;;;;;;;17.32;12.85;;;;;;;13.17;51.26;101244.05;1767439;80;22007;-63
2021/10/05 01:39:26;;;;;;;19.42;12.75;;;;;;;13.14;51.33;101241.67;1756561;80;21008;-62
2021/10/05 01:41:55;;;;;;;16.00;12.53;;;;;;;13.11;51.41;101241.95;1743439;80;21006;-63
2021/10/05 01:44:22;;;;;;;15.20;12.78;;;;;;;13.10;51.48;101242.95;1780677;80;21011;-62
2021/10/05 01:46:50;;;;;;;16.07;11.75;;;;;;;13.08;51.51;101240.94;1763646;80;21048;-62
2021/10/05 01:49:17;;;;;;;19.15;12.68;;;;;;;13.06;51.59;101244.24;1773406;80;21247;-62
2021/10/05 01:51:44;;;;;;;19.02;13.28;;;;;;;13.04;51.68;101241.36;1774461;80;21525;-62
2021/10/05 01:54:11;;;;;;;16.52;13.22;;;;;;;13.01;51.76;101238.50;1776771;80;21025;-61
2021/10/05 01:58:01;;;;;;;14.78;12.55;;;;;;;13.03;51.91;101243.19;1861873;75;28032;-61
2021/10/05 02:00:27;;;;;;;15.75;13.28;;;;;;;12.96;51.95;101250.09;1851169;77;21594;-62
2021/10/05 02:02:54;;;;;;;14.60;13.10;;;;;;;12.94;52.02;101250.27;1824913;78;21120;-63
2021/10/05 02:05:22;;;;;;;15.40;12.45;;;;;;;12.93;52.08;101245.07;1823372;77;20918;-63
2021/10/05 02:07:49;;;;;;;14.53;12.18;;;;;;;12.91;52.14;101250.55;1808570;77;21108;-62
2021/10/05 02:10:15;;;;;;;15.55;12.80;;;;;;;12.91;52.19;101251.05;1822144;77;21509;-63
2021/10/05 02:12:42;;;;;;;18.23;13.15;;;;;;;12.88;52.23;101261.49;1827138;77;21003;-63
2021/10/05 02:15:09;;;;;;;15.45;12.82;;;;;;;12.86;52.26;101262.64;1815637;77;21226;-63
2021/10/05 02:17:36;;;;;;;18.67;12.98;;;;;;;12.83;52.34;101266.45;1819696;78;20991;-61
2021/10/05 02:20:05;;;;;;;17.77;14.07;;;;;;;12.81;52.38;101264.92;1821642;78;21072;-62
2021/10/05 02:22:32;;;;;;;15.90;13.50;;;;;;;12.80;52.42;101270.72;1821876;77;21057;-63
2021/10/05 02:24:59;;;;;;;18.30;13.10;;;;;;;12.79;52.48;101271.23;1812862;78;21504;-63
2021/10/05 02:27:25;;;;;;;15.72;12.68;;;;;;;12.76;52.48;101274.17;1816970;77;21127;-62
2021/10/05 02:29:52;;;;;;;17.12;13.20;;;;;;;12.75;52.55;101274.34;1803805;77;21013;-62
2021/10/05 02:32:19;;;;;;;13.03;11.53;;;;;;;12.71;52.58;101276.92;1821325;78;21029;-63
2021/10/05 02:34:45;;;;;;;17.17;14.45;;;;;;;12.70;52.65;101281.92;1822175;78;21589;-62
2021/10/05 02:37:13;;;;;;;17.25;12.82;;;;;;;12.69;52.70;101283.76;1823222;77;21097;-64
2021/10/05 02:39:41;;;;;;;16.02;12.80;;;;;;;12.68;52.72;101277.23;1821025;77;21782;-64
2021/10/05 02:42:07;;;;;;;16.57;13.43;;;;;;;12.67;52.74;101279.53;1823751;77;21090;-63
2021/10/05 02:44:34;;;;;;;18.40;13.78;;;;;;;12.65;52.80;101282.36;1825926;77;20992;-63
2021/10/05 02:47:03;;;;;;;15.05;12.98;;;;;;;12.64;52.84;101279.84;1820161;77;21070;-64
2021/10/05 02:49:31;;;;;;;15.43;13.18;;;;;;;12.61;52.92;101284.94;1825871;77;21008;-62
2021/10/05 02:51:57;;;;;;;18.35;13.38;;;;;;;12.59;52.97;101285.58;1821316;77;21099;-62
2021/10/05 02:54:24;;;;;;;20.35;13.62;;;;;;;12.58;53.02;101286.58;1836634;77;21017;-63
2021/10/05 02:56:51;;;;;;;18.32;14.38;;;;;;;12.57;53.06;101299.55;1819201;77;21596;-62
2021/10/05 02:59:19;;;;;;;15.70;12.85;;;;;;;12.55;53.12;101297.02;1825098;77;21517;-62
2021/10/05 03:01:45;;;;;;;17.45;13.58;;;;;;;12.53;53.17;101292.33;1821867;78;21088;-62
2021/10/05 03:04:12;;;;;;;17.12;13.75;;;;;;;12.52;53.22;101293.83;1818376;77;21113;-62
2021/10/05 03:06:39;;;;;;;17.07;13.98;;;;;;;12.52;53.26;101293.33;1824102;77;21033;-63
2021/10/05 03:09:05;;;;;;;17.77;14.53;;;;;;;12.51;53.29;101289.46;1818476;77;21056;-62
2021/10/05 03:11:32;;;;;;;17.17;13.32;;;;;;;12.49;53.33;101289.59;1823332;77;20998;-62
2021/10/05 03:13:59;;;;;;;15.88;13.80;;;;;;;12.48;53.39;101289.77;1824397;77;21037;-62
2021/10/05 03:16:25;;;;;;;17.23;13.72;;;;;;;12.47;53.42;101293.40;1827222;77;21121;-63
2021/10/05 03:18:51;;;;;;;18.75;13.80;;;;;;;12.47;53.47;101288.07;1821143;77;21061;-63
2021/10/05 03:21:19;;;;;;;18.45;13.93;;;;;;;12.45;53.50;101282.88;1829249;77;21543;-63
2021/10/05 03:23:45;;;;;;;15.38;13.05;;;;;;;12.44;53.51;101283.88;1820476;77;21017;-62
2021/10/05 03:26:12;;;;;;;17.42;13.15;;;;;;;12.44;53.53;101293.67;1823839;77;21064;-63
2021/10/05 03:28:39;;;;;;;18.48;14.33;;;;;;;12.43;53.58;101297.34;1806836;77;21129;-62
2021/10/05 03:31:05;;;;;;;21.55;15.28;;;;;;;12.40;53.61;101287.81;1818579;77;21013;-63
2021/10/05 03:33:31;;;;;;;16.45;14.55;;;;;;;12.40;53.66;101297.14;1805819;78;21036;-63
2021/10/05 03:35:58;;;;;;;16.25;13.20;;;;;;;12.37;53.72;101300.91;1821199;77;21521;-64
2021/10/05 03:38:24;;;;;;;17.35;14.00;;;;;;;12.36;53.77;101301.91;1819709;78;21040;-62
2021/10/05 03:40:51;;;;;;;16.52;14.60;;;;;;;12.34;53.86;101296.34;1823244;77;21802;-62
2021/10/05 03:43:18;;;;;;;20.82;14.85;;;;;;;12.31;53.94;101300.15;1823995;77;21558;-62
2021/10/05 03:45:44;;;;;;;15.90;13.25;;;;;;;12.28;54.01;101299.58;1825362;77;21078;-62
2021/10/05 03:48:12;;;;;;;18.55;13.85;;;;;;;12.24;54.13;101298.19;1822056;77;20983;-63
2021/10/05 03:50:39;;;;;;;20.12;14.40;;;;;;;12.23;54.18;101301.81;1834901;77;21473;-66
2021/10/05 03:53:05;;;;;;;18.62;14.63;;;;;;;12.21;54.23;101304.66;1833336;77;21139;-62
2021/10/05 03:55:32;;;;;;;21.30;14.00;;;;;;;12.19;54.26;101302.63;1822991;78;21052;-63
2021/10/05 03:57:58;;;;;;;17.12;15.05;;;;;;;12.18;54.28;101305.75;1821168;78;21024;-64
2021/10/05 04:00:24;;;;;;;17.32;13.50;;;;;;;12.17;54.30;101301.42;1820796;77;20986;-63
2021/10/05 04:02:50;;;;;;;14.80;13.18;;;;;;;12.16;54.33;101301.55;1800267;77;21587;-63
2021/10/05 04:05:17;;;;;;;22.27;15.28;;;;;;;12.13;54.40;101304.48;1824023;77;21114;-64
2021/10/05 04:07:43;;;;;;;20.32;15.13;;;;;;;12.11;54.44;101303.78;1825326;77;21056;-63
2021/10/05 04:10:10;;;;;;;18.80;15.08;;;;;;;12.08;54.50;101300.09;1825719;77;21042;-63
2021/10/05 04:12:36;;;;;;;19.65;15.60;;;;;;;12.06;54.57;101299.39;1825770;77;21019;-63
2021/10/05 04:15:06;;;;;;;18.55;14.03;;;;;;;12.03;54.63;101303.16;1825683;77;21458;-62
2021/10/05 04:17:33;;;;;;;17.37;14.63;;;;;;;12.00;54.70;101299.45;1825372;77;21298;-62
2021/10/05 04:19:59;;;;;;;21.93;14.50;;;;;;;11.97;54.78;101303.22;1825585;77;21018;-62
2021/10/05 04:22:26;;;;;;;19.05;14.70;;;;;;;11.96;54.85;101310.88;1820703;77;21029;-62
2021/10/05 04:24:52;;;;;;;18.62;14.63;;;;;;;11.92;54.92;101314.80;1822291;78;21530;-63
2021/10/05 04:27:19;;;;;;;18.02;14.63;;;;;;;11.93;55.00;101326.28;1811480;77;21551;-64
2021/10/05 04:29:45;;;;;;;21.87;14.65;;;;;;;11.93;54.99;101325.78;1820617;77;21149;-63
2021/10/05 04:32:11;;;;;;;17.48;14.75;;;;;;;11.92;55.02;101329.44;1823227;77;21002;-63
2021/10/05 04:34:38;;;;;;;19.80;15.20;;;;;;;11.92;55.02;101332.61;1835083;77;21028;-63
2021/10/05 04:37:05;;;;;;;21.33;15.15;;;;;;;11.91;55.09;101334.90;1820843;77;21047;-64
2021/10/05 04:39:33;;;;;;;17.55;15.38;;;;;;;11.88;55.11;101331.14;1820140;77;21072;-64
2021/10/05 04:42:00;;;;;;;22.82;14.95;;;;;;;11.86;55.15;101331.30;1820112;77;21127;-63
2021/10/05 04:44:26;;;;;;;22.13;14.87;;;;;;;11.85;55.17;101333.59;1820503;77;21136;-63
2021/10/05 04:46:53;;;;;;;20.23;14.40;;;;;;;11.87;55.19;101336.96;1805565;77;21001;-63
2021/10/05 04:49:19;;;;;;;20.15;16.05;;;;;;;11.86;55.21;101339.29;1819154;78;21020;-64
2021/10/05 04:51:46;;;;;;;20.95;14.73;;;;;;;11.86;55.22;101339.75;1817181;77;21042;-63
2021/10/05 04:54:12;;;;;;;17.35;15.38;;;;;;;11.85;55.28;101338.92;1827333;77;21084;-62
2021/10/05 04:56:39;;;;;;;21.85;15.80;;;;;;;11.85;55.28;101344.25;1826614;77;21053;-64
2021/10/05 04:59:05;;;;;;;22.65;16.48;;;;;;;11.85;55.30;101347.41;1832981;77;21055;-63
2021/10/05 05:01:32;;;;;;;17.90;14.58;;;;;;;11.84;55.32;101347.04;1826890;77;21035;-63
2021/10/05 05:03:59;;;;;;;18.60;15.25;;;;;;;11.84;55.35;101359.89;1816844;78;21539;-64
2021/10/05 05:06:25;;;;;;;20.55;16.82;;;;;;;11.86;55.38;101362.39;1824733;77;21227;-62
2021/10/05 05:08:51;;;;;;;21.12;15.68;;;;;;;11.86;55.42;101367.72;1824650;77;21010;-64
2021/10/05 05:11:18;;;;;;;18.70;15.75;;;;;;;11.88;55.39;101370.61;1820613;78;21012;-62
2021/10/05 05:13:44;;;;;;;20.75;15.58;;;;;;;11.90;55.37;101368.69;1821497;77;21560;-64
2021/10/05 05:16:12;;;;;;;17.95;15.03;;;;;;;11.91;55.35;101371.69;1808922;77;21056;-64
2021/10/05 05:18:39;;;;;;;20.00;15.50;;;;;;;11.93;55.33;101372.89;1821699;78;21131;-63
2021/10/05 05:21:06;;;;;;;17.60;15.70;;;;;;;11.93;55.32;101372.39;1818416;77;21044;-64
2021/10/05 05:23:32;;;;;;;20.60;16.25;;;;;;;11.95;55.34;101366.93;1815593;77;21007;-63
2021/10/05 05:25:58;;;;;;;22.22;16.87;;;;;;;11.96;55.33;101376.63;1823020;77;21471;-63
2021/10/05 05:28:25;;;;;;;19.90;16.75;;;;;;;11.95;55.34;101374.42;1829896;77;21019;-64
2021/10/05 05:30:51;;;;;;;19.82;15.88;;;;;;;11.95;55.37;101380.25;1820828;77;21204;-64
2021/10/05 05:33:17;;;;;;;20.90;16.48;;;;;;;11.95;55.37;101379.75;1817997;77;21063;-64
2021/10/05 05:35:45;;;;;;;21.77;16.97;;;;;;;11.96;55.41;101384.61;1818934;77;21058;-62
2021/10/05 05:38:12;;;;;;;19.90;16.60;;;;;;;11.97;55.42;101388.94;1819862;77;21083;-64
2021/10/05 05:40:39;;;;;;;19.87;16.75;;;;;;;11.99;55.42;101390.52;1823883;77;20990;-64
2021/10/05 05:43:05;;;;;;;20.65;15.85;;;;;;;12.02;55.40;101392.55;1823847;78;21118;-63
2021/10/05 05:45:33;;;;;;;23.50;15.75;;;;;;;12.04;55.41;101395.91;1838769;77;21465;-63
2021/10/05 05:48:00;;;;;;;19.48;16.10;;;;;;;12.06;55.35;101392.62;1833043;77;21516;-63
2021/10/05 05:50:26;;;;;;;20.90;16.50;;;;;;;12.09;55.35;101401.65;1824250;77;21021;-65
2021/10/05 05:52:53;;;;;;;19.00;15.23;;;;;;;12.11;55.33;101393.03;1823759;78;21034;-63
2021/10/05 05:55:19;;;;;;;23.20;17.87;;;;;;;12.16;55.29;101398.80;1821936;77;21245;-63
2021/10/05 05:57:48;;;;;;;19.82;16.12;;;;;;;12.18;55.23;101401.66;1817615;77;21113;-63
2021/10/05 06:00:15;;;;;;;21.87;16.95;;;;;;;12.23;55.17;101403.07;1824187;78;21509;-63
2021/10/05 06:02:42;;;;;;;21.27;17.07;;;;;;;12.25;55.14;101403.80;1816907;77;21035;-65
2021/10/05 06:05:09;;;;;;;20.25;17.70;;;;;;;12.27;55.12;101398.67;1819856;77;21010;-63
2021/10/05 06:07:35;;;;;;;24.50;16.93;;;;;;;12.31;55.06;101398.75;1836756;77;21097;-63
2021/10/05 06:10:04;;;;;;;22.65;16.60;;;;;;;12.34;55.06;101405.14;1821113;77;21040;-63
2021/10/05 06:12:42;;;;;;;21.80;17.02;;;;;;;12.38;54.96;101402.55;1819347;77;20989;-64
2021/10/05 06:15:13;;;;;;;19.45;16.42;;;;;;;12.42;54.91;101412.91;1821240;77;21519;-64
2021/10/05 06:17:41;;;;;;;22.22;16.57;;;;;;;12.45;54.89;101408.65;1817661;78;21024;-63
2021/10/05 06:20:14;;;;;;;20.62;16.75;;;;;;;12.47;54.84;101409.34;1820844;77;21767;-63
2021/10/05 06:22:41;;;;;;;19.87;15.55;;;;;;;12.50;54.84;101407.25;1817283;77;21591;-62
2021/10/05 06:25:13;;;;;;;19.60;15.83;;;;;;;12.52;54.75;101412.45;1818786;77;21584;-64
2021/10/05 06:27:40;;;;;;;22.43;17.50;;;;;;;12.55;54.75;101417.48;1795758;77;22154;-62
2021/10/05 06:30:08;;;;;;;23.15;17.23;;;;;;;12.58;54.67;101411.38;1820723;77;21675;-63
2021/10/05 06:32:34;;;;;;;19.62;16.93;;;;;;;12.62;54.64;101416.45;1833393;77;21119;-64
2021/10/05 06:35:00;;;;;;;21.37;17.17;;;;;;;12.66;54.65;101416.01;1820029;77;21049;-63
2021/10/05 06:37:27;;;;;;;21.37;16.82;;;;;;;12.71;54.57;101412.91;1817365;77;21017;-62
2021/10/05 06:39:53;;;;;;;21.27;17.20;;;;;;;12.76;54.47;101413.34;1811682;77;21067;-64
2021/10/05 06:42:19;;;;;;;20.17;16.65;;;;;;;12.82;54.47;101410.59;1818513;77;21027;-63
2021/10/05 06:44:46;;;;;;;21.42;16.57;;;;;;;12.86;54.39;101411.50;1823810;77;21125;-63
2021/10/05 06:47:12;;;;;;;23.67;18.32;;;;;;;12.90;54.34;101406.25;1825144;78;21014;-64
2021/10/05 06:49:40;;;;;;;23.38;19.02;;;;;;;12.95;54.28;101403.98;1819395;78;21032;-64
2021/10/05 06:52:06;;;;;;;27.98;20.27;;;;;;;13.01;54.18;101415.91;1822499;77;21013;-63
2021/10/05 06:54:34;;;;;;;22.82;19.15;;;;;;;13.04;54.02;101414.77;1821138;77;21516;-63
2021/10/05 06:57:02;;;;;;;23.47;19.45;;;;;;;13.08;53.91;101417.02;1807368;78;21050;-63
2021/10/05 06:59:28;;;;;;;20.15;18.05;;;;;;;13.11;53.84;101419.89;1839542;77;21024;-65
2021/10/05 07:01:54;;;;;;;28.30;18.80;;;;;;;13.14;53.84;101421.78;1820613;77;21074;-64
2021/10/05 07:04:20;;;;;;;22.62;19.30;;;;;;;13.18;53.82;101419.67;1828399;77;21049;-63
2021/10/05 07:06:47;;;;;;;23.22;18.37;;;;;;;13.24;53.79;101422.25;1830825;78;21001;-64
2021/10/05 07:09:13;;;;;;;27.52;18.25;;;;;;;13.27;53.73;101423.28;1827180;77;22377;-62
2021/10/05 07:11:41;;;;;;;22.52;18.17;;;;;;;13.32;53.72;101421.06;1815644;77;21009;-62
2021/10/05 07:14:07;;;;;;;24.80;18.67;;;;;;;13.36;53.64;101426.45;1829350;77;21533;-63
2021/10/05 07:16:34;;;;;;;25.37;18.77;;;;;;;13.41;53.61;101426.04;1830960;78;21075;-63
2021/10/05 07:19:00;;;;;;;22.80;18.48;;;;;;;13.45;53.50;101428.27;1829518;78;20993;-63
2021/10/05 07:21:26;;;;;;;20.43;18.20;;;;;;;13.49;53.39;101419.47;1828582;77;21144;-64
2021/10/05 07:23:53;;;;;;;24.65;18.17;;;;;;;13.54;53.33;101429.20;1830194;77;20963;-66
2021/10/05 07:26:19;;;;;;;26.25;18.85;;;;;;;13.59;53.31;101434.13;1827532;77;21033;-62
2021/10/05 07:28:45;;;;;;;21.90;18.42;;;;;;;13.64;53.20;101435.86;1827911;77;21505;-64
2021/10/05 07:31:12;;;;;;;23.02;18.55;;;;;;;13.67;53.06;101428.38;1825414;78;21001;-63
2021/10/05 07:33:39;;;;;;;23.83;19.10;;;;;;;13.71;53.15;101431.13;1826480;77;22366;-63
2021/10/05 07:36:06;;;;;;;21.20;18.95;;;;;;;13.77;53.21;101431.00;1830881;77;21032;-63
2021/10/05 07:38:32;;;;;;;24.07;19.45;;;;;;;13.82;53.17;101435.92;1836089;77;21481;-64
2021/10/05 07:40:59;;;;;;;26.10;19.27;;;;;;;13.88;53.16;101443.34;1841073;77;21050;-62
2021/10/05 07:43:25;;;;;;;25.82;20.30;;;;;;;13.93;53.11;101440.56;1826860;78;21052;-62
2021/10/05 07:45:53;;;;;;;26.12;18.57;;;;;;;13.98;52.97;101442.78;1830186;77;21436;-63
2021/10/05 07:48:19;;;;;;;24.98;19.70;;;;;;;14.04;52.94;101450.70;1829277;77;21025;-64
2021/10/05 07:50:45;;;;;;;27.20;20.15;;;;;;;14.09;52.84;101442.58;1831404;77;21056;-64
2021/10/05 07:53:12;;;;;;;22.95;19.23;;;;;;;14.14;52.68;101440.31;1831091;77;21029;-63
2021/10/05 07:55:39;;;;;;;25.43;21.25;;;;;;;14.21;52.58;101448.56;1831396;77;21045;-63
2021/10/05 07:58:05;;;;;;;24.82;20.85;;;;;;;14.27;52.42;101442.61;1823432;77;23331;-64
2021/10/05 08:00:31;;;;;;;28.35;20.00;;;;;;;14.31;52.21;101436.47;1827881;77;21575;-64
2021/10/05 08:02:58;;;;;;;24.35;19.77;;;;;;;14.35;52.16;101433.83;1822837;77;21029;-64
2021/10/05 08:05:24;;;;;;;23.90;18.48;;;;;;;14.40;52.09;101442.25;1795661;78;21059;-63
2021/10/05 08:08:05;;;;;;;21.80;18.42;;;;;;;14.44;51.98;101438.27;1822137;77;20986;-63
2021/10/05 08:10:33;;;;;;;25.10;19.65;;;;;;;14.51;51.86;101443.87;1824785;78;21114;-65
2021/10/05 08:13:01;;;;;;;21.50;18.75;;;;;;;14.57;51.73;101444.63;1821341;77;20998;-62
2021/10/05 08:15:29;;;;;;;21.12;18.27;;;;;;;14.63;51.60;101444.01;1822516;78;21086;-62
2021/10/05 08:17:55;;;;;;;20.77;17.57;;;;;;;14.68;51.52;101442.20;1819178;78;21049;-63
2021/10/05 08:20:23;;;;;;;18.87;16.07;;;;;;;14.72;51.42;101440.42;1816082;77;21072;-64
2021/10/05 08:22:49;;;;;;;23.00;16.82;;;;;;;14.79;51.33;101439.80;1815767;78;21111;-64
2021/10/05 08:25:16;;;;;;;20.02;17.10;;;;;;;14.84;51.21;101454.39;1820612;77;21040;-62
2021/10/05 08:27:45;;;;;;;19.35;16.37;;;;;;;14.91;51.07;101454.60;1827431;77;20998;-64
2021/10/05 08:30:12;;;;;;;20.12;17.05;;;;;;;14.98;50.95;101449.49;1830384;77;21092;-63
2021/10/05 08:32:39;;;;;;;21.45;18.40;;;;;;;15.04;50.87;101447.02;1821143;78;21576;-64
2021/10/05 08:35:07;;;;;;;21.87;18.95;;;;;;;15.11;50.78;101448.09;1823261;77;21098;-64
2021/10/05 08:37:34;;;;;;;24.75;17.02;;;;;;;15.18;50.67;101441.59;1815949;77;21064;-64
2021/10/05 08:40:00;;;;;;;20.88;16.87;;;;;;;15.25;50.61;101445.84;1819917;77;21025;-64
2021/10/05 08:42:26;;;;;;;21.50;17.87;;;;;;;15.31;50.44;101440.68;1823327;77;21043;-63
2021/10/05 08:44:53;;;;;;;20.60;17.75;;;;;;;15.38;50.24;101444.92;1825147;77;21077;-62
2021/10/05 08:47:19;;;;;;;23.22;17.92;;;;;;;15.45;50.07;101446.45;1821850;77;21029;-62
2021/10/05 08:49:46;;;;;;;20.30;15.78;;;;;;;15.50;49.95;101446.32;1825881;77;21084;-61
2021/10/05 08:52:13;;;;;;;20.52;16.77;;;;;;;15.56;49.85;101452.88;1834823;77;21038;-64
2021/10/05 08:54:40;;;;;;;19.35;16.15;;;;;;;15.62;49.65;101448.73;1801951;77;21053;-62
2021/10/05 08:57:07;;;;;;;22.22;17.07;;;;;;;15.69;49.48;101453.30;1833107;77;21508;-63
2021/10/05 08:59:33;;;;;;;20.02;16.37;;;;;;;15.76;49.34;101456.70;1824502;77;21108;-64
2021/10/05 09:02:15;;;;;;;21.42;16.12;;;;;;;15.82;49.24;101447.53;1856516;77;20996;-64
2021/10/05 09:04:43;;;;;;;22.37;17.35;;;;;;;15.88;49.11;101445.55;1825756;77;21100;-63
2021/10/05 09:07:24;;;;;;;24.90;19.30;;;;;;;15.98;49.08;101443.23;1818758;77;21066;-63
2021/10/05 09:10:02;;;;;;;21.65;17.15;;;;;;;16.05;48.93;101447.79;1816484;77;21059;-64
2021/10/05 09:12:31;;;;;;;24.63;17.60;;;;;;;16.15;48.71;101442.77;1807628;77;21087;-65
2021/10/05 09:14:59;;;;;;;22.27;16.32;;;;;;;16.24;48.60;101451.18;1820227;77;21032;-63
2021/10/05 09:17:28;;;;;;;25.25;16.80;;;;;;;16.35;48.45;101439.32;1819203;78;21083;-64
2021/10/05 09:19:57;;;;;;;22.55;15.58;;;;;;;16.44;48.19;101448.55;1826332;77;21045;-66
2021/10/05 09:22:26;;;;;;;23.10;14.90;;;;;;;16.55;48.03;101443.36;1824674;77;21068;-64
2021/10/05 09:24:54;;;;;;;18.12;15.10;;;;;;;16.65;47.80;101445.40;1816962;77;21801;-63
2021/10/05 09:27:22;;;;;;;19.60;15.43;;;;;;;16.76;47.58;101446.90;1834441;77;21025;-64
2021/10/05 09:29:50;;;;;;;18.55;13.62;;;;;;;16.87;47.33;101431.84;1818553;77;21020;-64
2021/10/05 09:32:17;;;;;;;17.92;13.60;;;;;;;16.98;47.08;101436.52;1817089;77;21072;-64
2021/10/05 09:34:58;;;;;;;19.32;13.05;;;;;;;17.07;46.74;101438.20;1823341;77;21541;-63
2021/10/05 09:37:33;;;;;;;15.00;12.43;;;;;;;17.15;46.38;101422.58;1818222;77;22329;-64
2021/10/05 09:40:04;;;;;;;14.23;12.10;;;;;;;17.24;46.12;101433.14;1817016;77;21060;-64
2021/10/05 09:42:36;;;;;;;13.68;11.85;;;;;;;17.35;45.84;101429.78;1833787;77;21097;-64
2021/10/05 09:45:10;;;;;;;14.25;12.07;;;;;;;17.43;45.48;101431.09;1819101;77;21534;-66
2021/10/05 09:47:44;;;;;;;16.40;12.07;;;;;;;17.52;45.28;101429.20;1814844;77;21044;-64
2021/10/05 09:50:28;;;;;;;14.03;12.37;;;;;;;17.59;45.02;101435.58;1828679;77;21119;-64
2021/10/05 09:52:58;;;;;;;13.40;11.40;;;;;;;17.68;44.93;101425.14;1824423;77;21026;-65
2021/10/05 09:55:31;;;;;;;14.73;11.05;;;;;;;17.79;44.64;101428.80;1847983;77;21048;-65
2021/10/05 09:57:57;;;;;;;14.63;11.48;;;;;;;17.90;44.32;101434.31;1802626;77;21068;-64
2021/10/05 10:00:27;;;;;;;13.88;11.28;;;;;;;17.98;44.33;101432.09;1854373;76;21063;-64
2021/10/05 10:02:54;;;;;;;16.67;11.78;;;;;;;18.08;44.29;101427.35;1822006;76;21801;-64
2021/10/05 10:05:24;;;;;;;13.30;10.43;;;;;;;18.20;44.00;101429.13;1821051;76;21022;-65
2021/10/05 10:07:57;;;;;;;11.83;10.35;;;;;;;18.32;43.58;101428.22;1830689;77;21528;-63
2021/10/05 10:10:27;;;;;;;13.30;10.90;;;;;;;18.39;43.33;101425.98;1832728;77;21041;-64
2021/10/05 10:12:57;;;;;;;12.28;10.72;;;;;;;18.49;43.01;101425.74;1814835;77;21028;-64
2021/10/05 10:15:25;;;;;;;10.53;8.98;;;;;;;18.58;42.75;101430.05;1833325;76;21791;-63
2021/10/05 10:18:11;;;;;;;12.40;10.10;;;;;;;18.66;42.56;101420.56;1833816;76;21336;-62
2021/10/05 10:20:40;;;;;;;11.48;10.13;;;;;;;18.75;42.45;101420.48;1828779;76;21027;-64
2021/10/05 10:23:26;;;;;;;10.78;9.38;;;;;;;18.83;42.02;101411.88;1831203;76;21495;-63
2021/10/05 10:26:05;;;;;;;12.75;9.95;;;;;;;18.90;41.76;101413.84;1829244;76;21487;-64
2021/10/05 10:28:38;;;;;;;11.93;9.53;;;;;;;18.95;41.52;101411.41;1832711;77;21826;-64
2021/10/05 10:31:10;;;;;;;11.25;9.78;;;;;;;18.98;41.21;101401.64;1831868;76;21018;-63
2021/10/05 10:33:49;;;;;;;11.50;8.97;;;;;;;19.01;40.77;101400.77;1830273;77;21058;-63
2021/10/05 10:36:28;;;;;;;10.10;9.10;;;;;;;19.03;40.76;101394.69;1829621;77;21041;-63
2021/10/05 10:39:13;;;;;;;10.75;9.60;;;;;;;19.06;40.72;101388.08;1823031;76;21032;-64
2021/10/05 10:41:49;;;;;;;15.30;8.93;;;;;;;19.09;40.74;101381.52;1831184;76;21116;-66
2021/10/05 10:44:20;;;;;;;14.03;8.65;;;;;;;19.10;40.65;101389.39;1772209;78;21024;-64
2021/10/05 10:46:47;;;;;;;9.73;8.50;;;;;;;19.09;40.38;101376.95;1829836;78;21634;-62
2021/10/05 10:49:19;;;;;;;10.08;8.70;;;;;;;19.10;40.14;101377.27;1829020;77;22040;-65
2021/10/05 10:51:47;;;;;;;8.83;7.93;;;;;;;19.13;39.72;101372.04;1826320;76;21082;-64
2021/10/05 10:54:29;;;;;;;11.05;7.62;;;;;;;19.14;39.42;101369.66;1831314;76;21082;-63
2021/10/05 10:57:07;;;;;;;9.10;7.55;;;;;;;19.16;39.00;101371.66;1831370;76;21477;-63
2021/10/05 10:59:33;;;;;;;7.17;6.33;;;;;;;19.18;38.64;101372.30;1845557;77;21036;-64
2021/10/05 11:02:05;;;;;;;9.98;6.20;;;;;;;19.21;38.24;101365.20;1840044;77;20997;-64
2021/10/05 11:04:34;;;;;;;10.45;6.65;;;;;;;19.24;37.83;101360.81;1830118;78;21041;-64
2021/10/05 11:07:00;;;;;;;7.92;5.92;;;;;;;19.31;37.56;101358.19;1830022;77;21131;-63
2021/10/05 11:09:31;;;;;;;8.30;5.97;;;;;;;19.38;37.49;101357.78;1816378;77;21012;-63
2021/10/05 11:11:58;;;;;;;7.95;7.03;;;;;;;19.49;37.51;101355.97;1822252;78;20987;-61
2021/10/05 11:14:30;;;;;;;7.12;6.20;;;;;;;19.61;37.25;101373.84;1830790;77;21033;-64